sensor_id;sensor_type;location;lat;lon;timestamp;temperature;humidity
38183;DHT22;23991;52.430;10.586;2024-03-02T00:00:37;9.30;77.10
38183;DHT22;23991;52.430;10.586;2024-03-02T00:03:04;9.20;77.10
38183;DHT22;23991;52.430;10.586;2024-03-02T00:05:29;9.30;77.10
38183;DHT22;23991;52.430;10.586;2024-03-02T00:07:57;9.20;77.20
38183;DHT22;23991;52.430;10.586;2024-03-02T00:10:25;9.20;77.30
38183;DHT22;23991;52.430;10.586;2024-03-02T00:12:57;9.20;77.30
38183;DHT22;23991;52.430;10.586;2024-03-02T00:17:53;9.20;77.30
38183;DHT22;23991;52.430;10.586;2024-03-02T00:20:22;9.10;77.40
38183;DHT22;23991;52.430;10.586;2024-03-02T00:22:48;9.20;77.40
38183;DHT22;23991;52.430;10.586;2024-03-02T00:25:13;9.20;77.40
38183;DHT22;23991;52.430;10.586;2024-03-02T00:27:42;9.20;77.40
38183;DHT22;23991;52.430;10.586;2024-03-02T00:33:01;9.10;77.50
38183;DHT22;23991;52.430;10.586;2024-03-02T00:35:26;9.10;77.50
38183;DHT22;23991;52.430;10.586;2024-03-02T00:37:52;9.10;77.60
38183;DHT22;23991;52.430;10.586;2024-03-02T00:40:17;9.10;77.60
38183;DHT22;23991;52.430;10.586;2024-03-02T00:42:44;9.10;77.70
38183;DHT22;23991;52.430;10.586;2024-03-02T00:45:10;9.10;77.70
38183;DHT22;23991;52.430;10.586;2024-03-02T00:47:39;9.10;77.80
38183;DHT22;23991;52.430;10.586;2024-03-02T00:50:05;9.10;77.90
38183;DHT22;23991;52.430;10.586;2024-03-02T00:52:31;9.00;77.90
38183;DHT22;23991;52.430;10.586;2024-03-02T00:54:58;9.10;77.90
38183;DHT22;23991;52.430;10.586;2024-03-02T00:57:24;9.00;77.80
38183;DHT22;23991;52.430;10.586;2024-03-02T00:59:51;9.00;77.90
38183;DHT22;23991;52.430;10.586;2024-03-02T01:02:17;9.00;78.00
38183;DHT22;23991;52.430;10.586;2024-03-02T01:04:45;8.90;78.00
38183;DHT22;23991;52.430;10.586;2024-03-02T01:07:11;8.90;78.00
38183;DHT22;23991;52.430;10.586;2024-03-02T01:09:36;8.90;78.10
38183;DHT22;23991;52.430;10.586;2024-03-02T01:12:02;8.90;78.10
38183;DHT22;23991;52.430;10.586;2024-03-02T01:14:27;8.90;78.20
38183;DHT22;23991;52.430;10.586;2024-03-02T01:16:53;8.90;78.30
38183;DHT22;23991;52.430;10.586;2024-03-02T01:19:19;8.90;78.30
38183;DHT22;23991;52.430;10.586;2024-03-02T01:21:44;8.90;78.30
38183;DHT22;23991;52.430;10.586;2024-03-02T01:24:10;8.90;78.30
38183;DHT22;23991;52.430;10.586;2024-03-02T01:26:35;8.90;78.30
38183;DHT22;23991;52.430;10.586;2024-03-02T01:29:01;8.90;78.30
38183;DHT22;23991;52.430;10.586;2024-03-02T01:31:26;8.90;78.40
38183;DHT22;23991;52.430;10.586;2024-03-02T01:33:52;8.90;78.40
38183;DHT22;23991;52.430;10.586;2024-03-02T01:36:17;8.90;78.50
38183;DHT22;23991;52.430;10.586;2024-03-02T01:38:43;8.90;78.50
38183;DHT22;23991;52.430;10.586;2024-03-02T01:41:09;8.90;78.60
38183;DHT22;23991;52.430;10.586;2024-03-02T01:43:34;8.90;78.60
38183;DHT22;23991;52.430;10.586;2024-03-02T01:46:00;8.90;78.60
38183;DHT22;23991;52.430;10.586;2024-03-02T01:48:25;8.80;78.60
38183;DHT22;23991;52.430;10.586;2024-03-02T01:50:51;8.90;78.70
38183;DHT22;23991;52.430;10.586;2024-03-02T01:53:17;8.80;78.70
38183;DHT22;23991;52.430;10.586;2024-03-02T01:55:42;8.80;78.70
38183;DHT22;23991;52.430;10.586;2024-03-02T01:58:08;8.80;78.80
38183;DHT22;23991;52.430;10.586;2024-03-02T02:00:34;8.80;78.80
38183;DHT22;23991;52.430;10.586;2024-03-02T02:02:59;8.80;78.70
38183;DHT22;23991;52.430;10.586;2024-03-02T02:05:25;8.80;78.70
38183;DHT22;23991;52.430;10.586;2024-03-02T02:07:50;8.80;78.70
38183;DHT22;23991;52.430;10.586;2024-03-02T02:10:16;8.80;78.80
38183;DHT22;23991;52.430;10.586;2024-03-02T02:12:42;8.80;78.80
38183;DHT22;23991;52.430;10.586;2024-03-02T02:15:28;8.80;78.90
38183;DHT22;23991;52.430;10.586;2024-03-02T02:17:54;8.80;78.90
38183;DHT22;23991;52.430;10.586;2024-03-02T02:20:20;8.80;79.00
38183;DHT22;23991;52.430;10.586;2024-03-02T02:23:03;8.80;79.00
38183;DHT22;23991;52.430;10.586;2024-03-02T02:25:29;8.80;79.10
38183;DHT22;23991;52.430;10.586;2024-03-02T02:27:55;8.80;79.10
38183;DHT22;23991;52.430;10.586;2024-03-02T02:30:26;8.70;79.10
38183;DHT22;23991;52.430;10.586;2024-03-02T02:32:52;8.70;79.20
38183;DHT22;23991;52.430;10.586;2024-03-02T02:35:18;8.70;79.20
38183;DHT22;23991;52.430;10.586;2024-03-02T02:37:45;8.70;79.20
38183;DHT22;23991;52.430;10.586;2024-03-02T02:40:12;8.70;79.30
38183;DHT22;23991;52.430;10.586;2024-03-02T02:42:38;8.70;79.30
38183;DHT22;23991;52.430;10.586;2024-03-02T02:45:05;8.70;79.30
38183;DHT22;23991;52.430;10.586;2024-03-02T02:47:31;8.70;79.40
38183;DHT22;23991;52.430;10.586;2024-03-02T02:49:59;8.70;79.40
38183;DHT22;23991;52.430;10.586;2024-03-02T02:52:24;8.70;79.30
38183;DHT22;23991;52.430;10.586;2024-03-02T02:54:50;8.70;79.40
38183;DHT22;23991;52.430;10.586;2024-03-02T02:57:16;8.70;79.40
38183;DHT22;23991;52.430;10.586;2024-03-02T02:59:42;8.70;79.40
38183;DHT22;23991;52.430;10.586;2024-03-02T03:02:07;8.60;79.40
38183;DHT22;23991;52.430;10.586;2024-03-02T03:04:33;8.70;79.50
38183;DHT22;23991;52.430;10.586;2024-03-02T03:06:58;8.60;79.50
38183;DHT22;23991;52.430;10.586;2024-03-02T03:09:36;8.60;79.50
38183;DHT22;23991;52.430;10.586;2024-03-02T03:12:02;8.60;79.50
38183;DHT22;23991;52.430;10.586;2024-03-02T03:14:28;8.60;79.60
38183;DHT22;23991;52.430;10.586;2024-03-02T03:16:53;8.60;79.60
38183;DHT22;23991;52.430;10.586;2024-03-02T03:19:19;8.60;79.70
38183;DHT22;23991;52.430;10.586;2024-03-02T03:21:44;8.60;79.70
38183;DHT22;23991;52.430;10.586;2024-03-02T03:24:10;8.60;79.80
38183;DHT22;23991;52.430;10.586;2024-03-02T03:26:36;8.60;79.80
38183;DHT22;23991;52.430;10.586;2024-03-02T03:29:02;8.60;79.90
38183;DHT22;23991;52.430;10.586;2024-03-02T03:31:28;8.60;79.90
38183;DHT22;23991;52.430;10.586;2024-03-02T03:33:54;8.60;80.00
38183;DHT22;23991;52.430;10.586;2024-03-02T03:36:19;8.60;80.10
38183;DHT22;23991;52.430;10.586;2024-03-02T03:38:45;8.60;80.10
38183;DHT22;23991;52.430;10.586;2024-03-02T03:41:11;8.60;80.10
38183;DHT22;23991;52.430;10.586;2024-03-02T03:43:36;8.50;80.20
38183;DHT22;23991;52.430;10.586;2024-03-02T03:46:03;8.60;80.30
38183;DHT22;23991;52.430;10.586;2024-03-02T03:48:28;8.50;80.30
38183;DHT22;23991;52.430;10.586;2024-03-02T03:50:56;8.60;80.30
38183;DHT22;23991;52.430;10.586;2024-03-02T03:53:22;8.60;80.30
38183;DHT22;23991;52.430;10.586;2024-03-02T03:55:48;8.50;80.30
38183;DHT22;23991;52.430;10.586;2024-03-02T03:58:15;8.60;80.30
38183;DHT22;23991;52.430;10.586;2024-03-02T04:00:42;8.60;80.40
38183;DHT22;23991;52.430;10.586;2024-03-02T04:03:08;8.60;80.40
38183;DHT22;23991;52.430;10.586;2024-03-02T04:05:33;8.50;80.50
38183;DHT22;23991;52.430;10.586;2024-03-02T04:07:59;8.60;80.50
38183;DHT22;23991;52.430;10.586;2024-03-02T04:10:25;8.50;80.60
38183;DHT22;23991;52.430;10.586;2024-03-02T04:12:51;8.50;80.70
38183;DHT22;23991;52.430;10.586;2024-03-02T04:15:17;8.50;80.80
38183;DHT22;23991;52.430;10.586;2024-03-02T04:17:44;8.60;80.80
38183;DHT22;23991;52.430;10.586;2024-03-02T04:20:10;8.50;80.80
38183;DHT22;23991;52.430;10.586;2024-03-02T04:22:37;8.60;80.80
38183;DHT22;23991;52.430;10.586;2024-03-02T04:25:03;8.50;80.80
38183;DHT22;23991;52.430;10.586;2024-03-02T04:27:30;8.50;80.90
38183;DHT22;23991;52.430;10.586;2024-03-02T04:29:57;8.50;81.00
38183;DHT22;23991;52.430;10.586;2024-03-02T04:32:22;8.50;81.00
38183;DHT22;23991;52.430;10.586;2024-03-02T04:34:48;8.50;81.10
38183;DHT22;23991;52.430;10.586;2024-03-02T04:37:13;8.50;81.10
38183;DHT22;23991;52.430;10.586;2024-03-02T04:39:40;8.50;81.20
38183;DHT22;23991;52.430;10.586;2024-03-02T04:42:05;8.50;81.20
38183;DHT22;23991;52.430;10.586;2024-03-02T04:44:31;8.50;81.30
38183;DHT22;23991;52.430;10.586;2024-03-02T04:46:56;8.50;81.30
38183;DHT22;23991;52.430;10.586;2024-03-02T04:49:23;8.50;81.30
38183;DHT22;23991;52.430;10.586;2024-03-02T04:51:48;8.40;81.40
38183;DHT22;23991;52.430;10.586;2024-03-02T04:54:14;8.40;81.50
38183;DHT22;23991;52.430;10.586;2024-03-02T04:56:39;8.40;81.40
38183;DHT22;23991;52.430;10.586;2024-03-02T04:59:09;8.40;81.40
38183;DHT22;23991;52.430;10.586;2024-03-02T05:01:35;8.40;81.30
38183;DHT22;23991;52.430;10.586;2024-03-02T05:04:00;8.40;81.20
38183;DHT22;23991;52.430;10.586;2024-03-02T05:06:26;8.40;81.10
38183;DHT22;23991;52.430;10.586;2024-03-02T05:08:53;8.30;80.90
38183;DHT22;23991;52.430;10.586;2024-03-02T05:11:18;8.30;80.70
38183;DHT22;23991;52.430;10.586;2024-03-02T05:14:05;8.30;80.70
38183;DHT22;23991;52.430;10.586;2024-03-02T05:16:34;8.30;80.70
38183;DHT22;23991;52.430;10.586;2024-03-02T05:19:00;8.30;80.70
38183;DHT22;23991;52.430;10.586;2024-03-02T05:21:26;8.20;80.70
38183;DHT22;23991;52.430;10.586;2024-03-02T05:23:51;8.20;80.70
38183;DHT22;23991;52.430;10.586;2024-03-02T05:26:17;8.20;80.70
38183;DHT22;23991;52.430;10.586;2024-03-02T05:28:42;8.10;80.80
38183;DHT22;23991;52.430;10.586;2024-03-02T05:31:11;8.10;80.80
38183;DHT22;23991;52.430;10.586;2024-03-02T05:33:40;8.10;80.70
38183;DHT22;23991;52.430;10.586;2024-03-02T05:36:06;8.10;80.60
38183;DHT22;23991;52.430;10.586;2024-03-02T05:38:35;8.10;80.60
38183;DHT22;23991;52.430;10.586;2024-03-02T05:41:01;8.10;80.50
38183;DHT22;23991;52.430;10.586;2024-03-02T05:43:27;8.00;80.50
38183;DHT22;23991;52.430;10.586;2024-03-02T05:45:52;8.00;80.50
38183;DHT22;23991;52.430;10.586;2024-03-02T05:48:18;8.00;80.70
38183;DHT22;23991;52.430;10.586;2024-03-02T05:50:44;8.00;80.80
38183;DHT22;23991;52.430;10.586;2024-03-02T05:53:09;8.00;80.80
38183;DHT22;23991;52.430;10.586;2024-03-02T05:55:35;7.90;80.80
38183;DHT22;23991;52.430;10.586;2024-03-02T05:58:00;7.90;80.70
38183;DHT22;23991;52.430;10.586;2024-03-02T06:00:34;7.90;80.60
38183;DHT22;23991;52.430;10.586;2024-03-02T06:03:00;7.90;80.70
38183;DHT22;23991;52.430;10.586;2024-03-02T06:05:26;7.90;80.70
38183;DHT22;23991;52.430;10.586;2024-03-02T06:07:51;7.90;80.90
38183;DHT22;23991;52.430;10.586;2024-03-02T06:10:17;7.80;81.00
38183;DHT22;23991;52.430;10.586;2024-03-02T06:12:43;7.90;81.00
38183;DHT22;23991;52.430;10.586;2024-03-02T06:15:09;7.80;80.90
38183;DHT22;23991;52.430;10.586;2024-03-02T06:17:35;7.80;80.90
38183;DHT22;23991;52.430;10.586;2024-03-02T06:20:01;7.80;81.00
38183;DHT22;23991;52.430;10.586;2024-03-02T06:22:27;7.80;81.00
38183;DHT22;23991;52.430;10.586;2024-03-02T06:24:52;7.80;81.10
38183;DHT22;23991;52.430;10.586;2024-03-02T06:27:18;7.80;81.20
38183;DHT22;23991;52.430;10.586;2024-03-02T06:29:43;7.80;81.00
38183;DHT22;23991;52.430;10.586;2024-03-02T06:32:09;7.90;80.90
38183;DHT22;23991;52.430;10.586;2024-03-02T06:34:34;7.90;80.70
38183;DHT22;23991;52.430;10.586;2024-03-02T06:37:00;7.90;80.60
38183;DHT22;23991;52.430;10.586;2024-03-02T06:39:25;8.00;80.60
38183;DHT22;23991;52.430;10.586;2024-03-02T06:41:51;8.00;80.50
38183;DHT22;23991;52.430;10.586;2024-03-02T06:44:17;8.10;80.40
38183;DHT22;23991;52.430;10.586;2024-03-02T06:46:43;8.10;80.20
38183;DHT22;23991;52.430;10.586;2024-03-02T06:49:08;8.20;80.10
38183;DHT22;23991;52.430;10.586;2024-03-02T06:51:36;8.30;79.90
38183;DHT22;23991;52.430;10.586;2024-03-02T06:54:01;8.30;79.60
38183;DHT22;23991;52.430;10.586;2024-03-02T06:56:27;8.40;79.60
38183;DHT22;23991;52.430;10.586;2024-03-02T06:58:53;8.40;79.30
38183;DHT22;23991;52.430;10.586;2024-03-02T07:01:18;8.50;79.20
38183;DHT22;23991;52.430;10.586;2024-03-02T07:03:45;8.60;78.90
38183;DHT22;23991;52.430;10.586;2024-03-02T07:06:11;8.60;78.60
38183;DHT22;23991;52.430;10.586;2024-03-02T07:08:36;8.70;78.30
38183;DHT22;23991;52.430;10.586;2024-03-02T07:11:02;8.80;78.00
38183;DHT22;23991;52.430;10.586;2024-03-02T07:13:28;8.90;77.80
38183;DHT22;23991;52.430;10.586;2024-03-02T07:15:53;8.90;77.50
38183;DHT22;23991;52.430;10.586;2024-03-02T07:18:45;9.10;77.30
38183;DHT22;23991;52.430;10.586;2024-03-02T07:21:17;9.10;76.90
38183;DHT22;23991;52.430;10.586;2024-03-02T07:23:42;9.20;76.60
38183;DHT22;23991;52.430;10.586;2024-03-02T07:26:08;9.30;76.30
38183;DHT22;23991;52.430;10.586;2024-03-02T07:28:34;9.40;75.90
38183;DHT22;23991;52.430;10.586;2024-03-02T07:31:02;9.50;75.60
38183;DHT22;23991;52.430;10.586;2024-03-02T07:33:30;9.60;75.20
38183;DHT22;23991;52.430;10.586;2024-03-02T07:35:59;9.70;75.00
38183;DHT22;23991;52.430;10.586;2024-03-02T07:38:28;9.80;74.70
38183;DHT22;23991;52.430;10.586;2024-03-02T07:40:57;9.90;74.40
38183;DHT22;23991;52.430;10.586;2024-03-02T07:43:26;10.00;74.00
38183;DHT22;23991;52.430;10.586;2024-03-02T07:45:52;10.10;73.60
38183;DHT22;23991;52.430;10.586;2024-03-02T07:48:18;10.20;73.20
38183;DHT22;23991;52.430;10.586;2024-03-02T07:50:47;10.30;72.90
38183;DHT22;23991;52.430;10.586;2024-03-02T07:53:12;10.50;72.20
38183;DHT22;23991;52.430;10.586;2024-03-02T07:55:39;10.60;71.90
38183;DHT22;23991;52.430;10.586;2024-03-02T07:58:06;10.70;71.60
38183;DHT22;23991;52.430;10.586;2024-03-02T08:00:32;10.80;71.60
38183;DHT22;23991;52.430;10.586;2024-03-02T08:02:58;10.90;71.30
38183;DHT22;23991;52.430;10.586;2024-03-02T08:05:24;11.20;70.80
38183;DHT22;23991;52.430;10.586;2024-03-02T08:07:49;11.30;70.30
38183;DHT22;23991;52.430;10.586;2024-03-02T08:10:18;11.50;69.80
38183;DHT22;23991;52.430;10.586;2024-03-02T08:12:44;11.70;69.50
38183;DHT22;23991;52.430;10.586;2024-03-02T08:15:10;11.80;69.50
38183;DHT22;23991;52.430;10.586;2024-03-02T08:17:35;11.90;69.30
38183;DHT22;23991;52.430;10.586;2024-03-02T08:20:01;11.90;69.50
38183;DHT22;23991;52.430;10.586;2024-03-02T08:22:30;12.20;68.60
38183;DHT22;23991;52.430;10.586;2024-03-02T08:24:56;12.50;67.70
38183;DHT22;23991;52.430;10.586;2024-03-02T08:27:21;12.70;66.90
38183;DHT22;23991;52.430;10.586;2024-03-02T08:29:48;12.80;66.80
38183;DHT22;23991;52.430;10.586;2024-03-02T08:32:14;13.00;66.10
38183;DHT22;23991;52.430;10.586;2024-03-02T08:34:40;13.30;65.10
38183;DHT22;23991;52.430;10.586;2024-03-02T08:37:05;13.70;63.90
38183;DHT22;23991;52.430;10.586;2024-03-02T08:39:31;13.70;63.70
38183;DHT22;23991;52.430;10.586;2024-03-02T08:41:57;14.10;62.70
38183;DHT22;23991;52.430;10.586;2024-03-02T08:44:24;14.50;61.30
38183;DHT22;23991;52.430;10.586;2024-03-02T08:46:50;14.80;60.20
38183;DHT22;23991;52.430;10.586;2024-03-02T08:49:16;15.30;58.70
38183;DHT22;23991;52.430;10.586;2024-03-02T08:51:42;15.30;58.00
38183;DHT22;23991;52.430;10.586;2024-03-02T08:54:08;15.50;56.80
38183;DHT22;23991;52.430;10.586;2024-03-02T08:56:34;15.60;56.80
38183;DHT22;23991;52.430;10.586;2024-03-02T08:59:00;15.90;55.90
38183;DHT22;23991;52.430;10.586;2024-03-02T09:01:26;15.80;55.70
38183;DHT22;23991;52.430;10.586;2024-03-02T09:03:51;16.10;55.00
38183;DHT22;23991;52.430;10.586;2024-03-02T09:06:17;16.20;54.80
38183;DHT22;23991;52.430;10.586;2024-03-02T09:08:43;16.30;55.00
38183;DHT22;23991;52.430;10.586;2024-03-02T09:11:10;16.20;55.00
38183;DHT22;23991;52.430;10.586;2024-03-02T09:13:37;16.40;54.30
38183;DHT22;23991;52.430;10.586;2024-03-02T09:16:03;16.70;53.80
38183;DHT22;23991;52.430;10.586;2024-03-02T09:18:29;16.60;53.80
38183;DHT22;23991;52.430;10.586;2024-03-02T09:20:55;16.80;53.90
38183;DHT22;23991;52.430;10.586;2024-03-02T09:23:20;17.20;51.80
38183;DHT22;23991;52.430;10.586;2024-03-02T09:25:55;17.50;51.00
38183;DHT22;23991;52.430;10.586;2024-03-02T09:28:20;17.90;49.40
38183;DHT22;23991;52.430;10.586;2024-03-02T09:30:46;18.30;48.10
38183;DHT22;23991;52.430;10.586;2024-03-02T09:33:11;18.60;47.70
38183;DHT22;23991;52.430;10.586;2024-03-02T09:35:37;18.60;47.90
38183;DHT22;23991;52.430;10.586;2024-03-02T09:38:02;18.80;47.60
38183;DHT22;23991;52.430;10.586;2024-03-02T09:40:29;18.80;47.00
38183;DHT22;23991;52.430;10.586;2024-03-02T09:42:54;18.70;47.50
38183;DHT22;23991;52.430;10.586;2024-03-02T09:45:25;18.90;45.80
38183;DHT22;23991;52.430;10.586;2024-03-02T09:47:51;18.80;46.30
38183;DHT22;23991;52.430;10.586;2024-03-02T09:50:17;18.60;46.40
38183;DHT22;23991;52.430;10.586;2024-03-02T09:52:43;18.70;47.10
38183;DHT22;23991;52.430;10.586;2024-03-02T09:55:09;18.90;46.40
38183;DHT22;23991;52.430;10.586;2024-03-02T09:57:34;18.80;46.00
38183;DHT22;23991;52.430;10.586;2024-03-02T10:00:00;18.60;46.80
38183;DHT22;23991;52.430;10.586;2024-03-02T10:02:26;18.60;46.50
38183;DHT22;23991;52.430;10.586;2024-03-02T10:04:51;18.80;47.00
38183;DHT22;23991;52.430;10.586;2024-03-02T10:07:18;18.90;46.70
38183;DHT22;23991;52.430;10.586;2024-03-02T10:09:48;19.20;45.00
38183;DHT22;23991;52.430;10.586;2024-03-02T10:12:18;19.10;45.90
38183;DHT22;23991;52.430;10.586;2024-03-02T10:14:44;19.40;44.50
38183;DHT22;23991;52.430;10.586;2024-03-02T10:17:12;19.40;45.00
38183;DHT22;23991;52.430;10.586;2024-03-02T10:19:40;19.50;44.70
38183;DHT22;23991;52.430;10.586;2024-03-02T10:22:09;19.70;43.90
38183;DHT22;23991;52.430;10.586;2024-03-02T10:27:06;19.80;42.60
38183;DHT22;23991;52.430;10.586;2024-03-02T10:29:32;20.00;41.50
38183;DHT22;23991;52.430;10.586;2024-03-02T10:31:57;20.10;42.10
38183;DHT22;23991;52.430;10.586;2024-03-02T10:34:25;20.00;42.70
38183;DHT22;23991;52.430;10.586;2024-03-02T10:36:51;20.20;42.70
38183;DHT22;23991;52.430;10.586;2024-03-02T10:39:17;20.10;42.30
38183;DHT22;23991;52.430;10.586;2024-03-02T10:41:43;20.30;41.40
38183;DHT22;23991;52.430;10.586;2024-03-02T10:44:10;20.30;41.00
38183;DHT22;23991;52.430;10.586;2024-03-02T10:46:37;20.50;40.80
38183;DHT22;23991;52.430;10.586;2024-03-02T10:49:05;20.20;42.80
38183;DHT22;23991;52.430;10.586;2024-03-02T10:51:32;20.10;43.10
38183;DHT22;23991;52.430;10.586;2024-03-02T10:53:59;20.00;43.90
38183;DHT22;23991;52.430;10.586;2024-03-02T10:56:40;20.20;43.50
38183;DHT22;23991;52.430;10.586;2024-03-02T10:59:23;20.30;43.40
38183;DHT22;23991;52.430;10.586;2024-03-02T11:01:50;20.80;41.80
38183;DHT22;23991;52.430;10.586;2024-03-02T11:04:18;21.20;41.10
38183;DHT22;23991;52.430;10.586;2024-03-02T11:06:48;22.00;39.20
38183;DHT22;23991;52.430;10.586;2024-03-02T11:09:14;22.50;38.20
38183;DHT22;23991;52.430;10.586;2024-03-02T11:11:43;23.30;36.60
38183;DHT22;23991;52.430;10.586;2024-03-02T11:14:16;23.60;35.60
38183;DHT22;23991;52.430;10.586;2024-03-02T11:16:42;23.60;33.40
38183;DHT22;23991;52.430;10.586;2024-03-02T11:19:13;23.80;32.20
38183;DHT22;23991;52.430;10.586;2024-03-02T11:21:40;23.80;31.80
38183;DHT22;23991;52.430;10.586;2024-03-02T11:26:46;23.40;32.10
38183;DHT22;23991;52.430;10.586;2024-03-02T11:34:46;23.30;32.40
38183;DHT22;23991;52.430;10.586;2024-03-02T11:37:13;23.30;32.40
38183;DHT22;23991;52.430;10.586;2024-03-02T11:39:39;22.80;34.00
38183;DHT22;23991;52.430;10.586;2024-03-02T11:42:08;22.90;32.60
38183;DHT22;23991;52.430;10.586;2024-03-02T11:44:35;22.90;33.10
38183;DHT22;23991;52.430;10.586;2024-03-02T11:47:02;22.80;33.20
38183;DHT22;23991;52.430;10.586;2024-03-02T11:49:38;22.60;33.70
38183;DHT22;23991;52.430;10.586;2024-03-02T11:52:05;22.80;32.60
38183;DHT22;23991;52.430;10.586;2024-03-02T11:54:33;22.60;32.80
38183;DHT22;23991;52.430;10.586;2024-03-02T11:57:02;22.20;33.60
38183;DHT22;23991;52.430;10.586;2024-03-02T11:59:29;22.20;34.00
38183;DHT22;23991;52.430;10.586;2024-03-02T12:01:55;22.20;34.80
38183;DHT22;23991;52.430;10.586;2024-03-02T12:04:21;22.20;33.70
38183;DHT22;23991;52.430;10.586;2024-03-02T12:06:53;21.90;34.50
38183;DHT22;23991;52.430;10.586;2024-03-02T12:09:20;21.80;34.50
38183;DHT22;23991;52.430;10.586;2024-03-02T12:11:46;21.50;35.20
38183;DHT22;23991;52.430;10.586;2024-03-02T12:14:12;21.70;34.60
38183;DHT22;23991;52.430;10.586;2024-03-02T12:16:44;21.90;34.20
38183;DHT22;23991;52.430;10.586;2024-03-02T12:19:10;21.70;34.50
38183;DHT22;23991;52.430;10.586;2024-03-02T12:21:35;21.70;34.10
38183;DHT22;23991;52.430;10.586;2024-03-02T12:24:01;21.60;35.00
38183;DHT22;23991;52.430;10.586;2024-03-02T12:26:30;21.40;35.20
38183;DHT22;23991;52.430;10.586;2024-03-02T12:28:55;21.70;34.90
38183;DHT22;23991;52.430;10.586;2024-03-02T12:31:21;21.80;34.10
38183;DHT22;23991;52.430;10.586;2024-03-02T12:33:47;21.50;35.30
38183;DHT22;23991;52.430;10.586;2024-03-02T12:36:13;21.30;35.40
38183;DHT22;23991;52.430;10.586;2024-03-02T12:38:43;21.70;35.00
38183;DHT22;23991;52.430;10.586;2024-03-02T12:41:09;21.80;34.30
38183;DHT22;23991;52.430;10.586;2024-03-02T12:43:35;21.80;34.30
38183;DHT22;23991;52.430;10.586;2024-03-02T12:46:00;21.80;34.00
38183;DHT22;23991;52.430;10.586;2024-03-02T12:48:26;21.70;34.20
38183;DHT22;23991;52.430;10.586;2024-03-02T12:50:52;21.80;34.00
38183;DHT22;23991;52.430;10.586;2024-03-02T12:53:18;22.10;33.80
38183;DHT22;23991;52.430;10.586;2024-03-02T12:55:43;22.20;33.50
38183;DHT22;23991;52.430;10.586;2024-03-02T12:58:18;22.20;33.40
38183;DHT22;23991;52.430;10.586;2024-03-02T13:00:49;22.40;33.50
38183;DHT22;23991;52.430;10.586;2024-03-02T13:03:18;22.80;33.40
38183;DHT22;23991;52.430;10.586;2024-03-02T13:05:49;23.30;32.80
38183;DHT22;23991;52.430;10.586;2024-03-02T13:08:15;23.50;32.50
38183;DHT22;23991;52.430;10.586;2024-03-02T13:10:41;24.00;31.90
38183;DHT22;23991;52.430;10.586;2024-03-02T13:13:08;24.30;31.70
38183;DHT22;23991;52.430;10.586;2024-03-02T13:15:36;24.80;30.40
38183;DHT22;23991;52.430;10.586;2024-03-02T13:18:01;25.20;30.30
38183;DHT22;23991;52.430;10.586;2024-03-02T13:20:31;25.50;29.60
38183;DHT22;23991;52.430;10.586;2024-03-02T13:23:00;25.40;29.30
38183;DHT22;23991;52.430;10.586;2024-03-02T13:25:27;25.50;29.40
38183;DHT22;23991;52.430;10.586;2024-03-02T13:27:52;25.20;29.50
38183;DHT22;23991;52.430;10.586;2024-03-02T13:30:19;25.20;29.70
38183;DHT22;23991;52.430;10.586;2024-03-02T13:32:45;25.40;29.00
38183;DHT22;23991;52.430;10.586;2024-03-02T13:35:15;25.50;28.90
38183;DHT22;23991;52.430;10.586;2024-03-02T13:37:40;25.60;28.80
38183;DHT22;23991;52.430;10.586;2024-03-02T13:40:12;25.50;29.10
38183;DHT22;23991;52.430;10.586;2024-03-02T13:42:43;25.30;29.40
38183;DHT22;23991;52.430;10.586;2024-03-02T13:45:08;25.30;29.20
38183;DHT22;23991;52.430;10.586;2024-03-02T13:47:34;24.60;30.80
38183;DHT22;23991;52.430;10.586;2024-03-02T13:50:00;24.40;30.70
38183;DHT22;23991;52.430;10.586;2024-03-02T13:52:25;24.00;31.20
38183;DHT22;23991;52.430;10.586;2024-03-02T13:54:51;24.10;31.10
38183;DHT22;23991;52.430;10.586;2024-03-02T13:57:20;24.30;30.30
38183;DHT22;23991;52.430;10.586;2024-03-02T13:59:45;24.10;30.80
38183;DHT22;23991;52.430;10.586;2024-03-02T14:02:12;24.00;31.20
38183;DHT22;23991;52.430;10.586;2024-03-02T14:04:40;23.70;32.40
38183;DHT22;23991;52.430;10.586;2024-03-02T14:07:06;23.80;32.30
38183;DHT22;23991;52.430;10.586;2024-03-02T14:09:37;23.50;32.80
38183;DHT22;23991;52.430;10.586;2024-03-02T14:12:04;23.60;33.10
38183;DHT22;23991;52.430;10.586;2024-03-02T14:14:30;23.50;33.50
38183;DHT22;23991;52.430;10.586;2024-03-02T14:17:01;23.70;33.00
38183;DHT22;23991;52.430;10.586;2024-03-02T14:19:32;23.70;33.00
38183;DHT22;23991;52.430;10.586;2024-03-02T14:21:58;23.50;33.50
38183;DHT22;23991;52.430;10.586;2024-03-02T14:24:26;23.50;34.10
38183;DHT22;23991;52.430;10.586;2024-03-02T14:26:53;24.10;33.00
38183;DHT22;23991;52.430;10.586;2024-03-02T14:29:19;24.10;33.40
38183;DHT22;23991;52.430;10.586;2024-03-02T14:31:44;24.50;32.20
38183;DHT22;23991;52.430;10.586;2024-03-02T14:34:14;24.90;31.50
38183;DHT22;23991;52.430;10.586;2024-03-02T14:36:40;25.10;31.20
38183;DHT22;23991;52.430;10.586;2024-03-02T14:39:08;25.10;31.30
38183;DHT22;23991;52.430;10.586;2024-03-02T14:41:37;24.80;31.80
38183;DHT22;23991;52.430;10.586;2024-03-02T14:44:03;25.10;31.90
38183;DHT22;23991;52.430;10.586;2024-03-02T14:46:30;25.30;31.80
38183;DHT22;23991;52.430;10.586;2024-03-02T14:49:00;25.70;31.20
38183;DHT22;23991;52.430;10.586;2024-03-02T14:51:25;25.80;31.10
38183;DHT22;23991;52.430;10.586;2024-03-02T14:53:52;25.60;31.20
38183;DHT22;23991;52.430;10.586;2024-03-02T14:56:17;26.00;30.10
38183;DHT22;23991;52.430;10.586;2024-03-02T14:58:48;25.80;29.70
38183;DHT22;23991;52.430;10.586;2024-03-02T15:01:13;25.70;29.20
38183;DHT22;23991;52.430;10.586;2024-03-02T15:03:44;25.80;28.50
38183;DHT22;23991;52.430;10.586;2024-03-02T15:06:09;25.60;28.60
38183;DHT22;23991;52.430;10.586;2024-03-02T15:08:38;25.70;28.50
38183;DHT22;23991;52.430;10.586;2024-03-02T15:11:08;25.50;28.90
38183;DHT22;23991;52.430;10.586;2024-03-02T15:13:39;25.10;29.60
38183;DHT22;23991;52.430;10.586;2024-03-02T15:16:07;25.00;30.30
38183;DHT22;23991;52.430;10.586;2024-03-02T15:18:33;25.10;30.60
38183;DHT22;23991;52.430;10.586;2024-03-02T15:21:00;25.00;30.90
38183;DHT22;23991;52.430;10.586;2024-03-02T15:23:25;24.90;31.30
38183;DHT22;23991;52.430;10.586;2024-03-02T15:25:55;24.40;32.30
38183;DHT22;23991;52.430;10.586;2024-03-02T15:28:21;24.30;32.40
38183;DHT22;23991;52.430;10.586;2024-03-02T15:30:46;24.50;32.00
38183;DHT22;23991;52.430;10.586;2024-03-02T15:33:12;24.50;32.00
38183;DHT22;23991;52.430;10.586;2024-03-02T15:35:37;24.30;32.20